sensor_id;sensor_type;location;lat;lon;timestamp;pressure;altitude;pressure_sealevel;temperature;humidity
32197;BME280;18697;42.770;23.400;2022-07-12T00:01:25;96063.66;;;21.02;41.69
32197;BME280;18697;42.770;23.400;2022-07-12T00:03:50;96072.59;;;21.06;41.88
32197;BME280;18697;42.770;23.400;2022-07-12T00:06:15;96071.06;;;21.05;41.60
32197;BME280;18697;42.770;23.400;2022-07-12T00:08:41;96076.72;;;21.05;41.86
32197;BME280;18697;42.770;23.400;2022-07-12T00:11:06;96069.00;;;21.06;41.75
32197;BME280;18697;42.770;23.400;2022-07-12T00:13:32;96064.41;;;21.03;41.69
32197;BME280;18697;42.770;23.400;2022-07-12T00:15:57;96067.75;;;21.01;41.89
32197;BME280;18697;42.770;23.400;2022-07-12T00:18:24;96070.59;;;21.01;41.69
32197;BME280;18697;42.770;23.400;2022-07-12T00:20:49;96072.63;;;21.00;41.99
32197;BME280;18697;42.770;23.400;2022-07-12T00:23:16;96071.09;;;20.99;41.90
32197;BME280;18697;42.770;23.400;2022-07-12T00:25:41;96075.97;;;20.99;41.77
32197;BME280;18697;42.770;23.400;2022-07-12T00:28:07;96073.69;;;20.97;42.03
32197;BME280;18697;42.770;23.400;2022-07-12T00:30:33;96073.19;;;20.93;41.83
32197;BME280;18697;42.770;23.400;2022-07-12T00:32:58;96065.53;;;20.88;41.94
32197;BME280;18697;42.770;23.400;2022-07-12T00:35:23;96067.56;;;20.88;42.07
32197;BME280;18697;42.770;23.400;2022-07-12T00:37:49;96059.38;;;20.84;41.92
32197;BME280;18697;42.770;23.400;2022-07-12T00:40:14;96070.44;;;20.82;41.95
32197;BME280;18697;42.770;23.400;2022-07-12T00:42:40;96074.84;;;20.78;42.11
32197;BME280;18697;42.770;23.400;2022-07-12T00:45:06;96069.72;;;20.76;41.94
32197;BME280;18697;42.770;23.400;2022-07-12T00:47:37;96053.84;;;20.73;41.83
32197;BME280;18697;42.770;23.400;2022-07-12T00:50:10;96068.78;;;20.62;41.94
32197;BME280;18697;42.770;23.400;2022-07-12T00:52:37;96066.19;;;20.64;41.88
32197;BME280;18697;42.770;23.400;2022-07-12T00:55:07;96060.31;;;20.62;42.10
32197;BME280;18697;42.770;23.400;2022-07-12T00:57:34;96064.66;;;20.63;42.14
32197;BME280;18697;42.770;23.400;2022-07-12T00:59:59;96061.34;;;20.59;41.73
32197;BME280;18697;42.770;23.400;2022-07-12T01:02:25;96066.22;;;20.59;41.63
32197;BME280;18697;42.770;23.400;2022-07-12T01:04:51;96070.88;;;20.51;42.14
32197;BME280;18697;42.770;23.400;2022-07-12T01:07:17;96063.69;;;20.50;42.13
32197;BME280;18697;42.770;23.400;2022-07-12T01:09:43;96073.72;;;20.45;42.28
32197;BME280;18697;42.770;23.400;2022-07-12T01:12:09;96074.47;;;20.46;42.00
32197;BME280;18697;42.770;23.400;2022-07-12T01:14:35;96075.78;;;20.45;42.25
32197;BME280;18697;42.770;23.400;2022-07-12T01:17:02;96070.41;;;20.41;42.23
32197;BME280;18697;42.770;23.400;2022-07-12T01:19:28;96072.44;;;20.35;42.39
32197;BME280;18697;42.770;23.400;2022-07-12T01:21:56;96069.88;;;20.37;42.39
32197;BME280;18697;42.770;23.400;2022-07-12T01:24:22;96071.69;;;20.34;42.38
32197;BME280;18697;42.770;23.400;2022-07-12T01:26:49;96068.84;;;20.34;42.58
32197;BME280;18697;42.770;23.400;2022-07-12T01:29:15;96071.44;;;20.27;42.40
32197;BME280;18697;42.770;23.400;2022-07-12T01:31:41;96066.06;;;20.29;42.39
32197;BME280;18697;42.770;23.400;2022-07-12T01:34:07;96065.56;;;20.25;42.32
32197;BME280;18697;42.770;23.400;2022-07-12T01:36:33;96072.97;;;20.28;42.43
32197;BME280;18697;42.770;23.400;2022-07-12T01:38:59;96074.50;;;20.29;42.38
32197;BME280;18697;42.770;23.400;2022-07-12T01:41:25;96077.59;;;20.31;42.30
32197;BME280;18697;42.770;23.400;2022-07-12T01:43:51;96066.31;;;20.31;42.17
32197;BME280;18697;42.770;23.400;2022-07-12T01:46:17;96069.38;;;20.33;42.12
32197;BME280;18697;42.770;23.400;2022-07-12T01:48:43;96058.09;;;20.27;42.20
32197;BME280;18697;42.770;23.400;2022-07-12T01:51:08;96066.09;;;20.18;42.27
32197;BME280;18697;42.770;23.400;2022-07-12T01:53:36;96067.38;;;20.11;42.51
32197;BME280;18697;42.770;23.400;2022-07-12T01:56:05;96064.06;;;20.13;42.73
32197;BME280;18697;42.770;23.400;2022-07-12T01:58:30;96061.50;;;20.09;42.18
32197;BME280;18697;42.770;23.400;2022-07-12T02:00:56;96058.94;;;20.11;42.10
32197;BME280;18697;42.770;23.400;2022-07-12T02:03:22;96056.59;;;20.15;42.14
32197;BME280;18697;42.770;23.400;2022-07-12T02:05:48;96058.91;;;20.17;42.38
32197;BME280;18697;42.770;23.400;2022-07-12T02:08:13;96052.50;;;20.16;41.96
32197;BME280;18697;42.770;23.400;2022-07-12T02:10:40;96057.63;;;20.18;42.38
32197;BME280;18697;42.770;23.400;2022-07-12T02:13:06;96059.69;;;20.17;42.29
32197;BME280;18697;42.770;23.400;2022-07-12T02:15:31;96054.81;;;20.18;42.12
32197;BME280;18697;42.770;23.400;2022-07-12T02:17:57;96058.91;;;20.17;41.90
32197;BME280;18697;42.770;23.400;2022-07-12T02:20:23;96067.63;;;20.13;41.74
32197;BME280;18697;42.770;23.400;2022-07-12T02:22:49;96066.66;;;20.05;41.99
32197;BME280;18697;42.770;23.400;2022-07-12T02:25:14;96061.75;;;20.06;41.89
32197;BME280;18697;42.770;23.400;2022-07-12T02:27:40;96057.66;;;20.07;41.80
32197;BME280;18697;42.770;23.400;2022-07-12T02:30:07;96060.25;;;20.05;41.71
32197;BME280;18697;42.770;23.400;2022-07-12T02:32:32;96065.91;;;20.05;41.75
32197;BME280;18697;42.770;23.400;2022-07-12T02:34:58;96064.88;;;20.02;41.64
32197;BME280;18697;42.770;23.400;2022-07-12T02:37:24;96062.06;;;20.02;41.66
32197;BME280;18697;42.770;23.400;2022-07-12T02:39:50;96069.75;;;20.01;41.22
32197;BME280;18697;42.770;23.400;2022-07-12T02:42:15;96071.03;;;20.00;41.38
32197;BME280;18697;42.770;23.400;2022-07-12T02:44:41;96074.38;;;19.99;41.20
32197;BME280;18697;42.770;23.400;2022-07-12T02:47:06;96072.56;;;19.96;41.25
32197;BME280;18697;42.770;23.400;2022-07-12T02:49:31;96066.97;;;19.85;41.39
32197;BME280;18697;42.770;23.400;2022-07-12T02:51:57;96070.81;;;19.87;41.45
32197;BME280;18697;42.770;23.400;2022-07-12T02:54:22;96076.44;;;19.87;41.28
32197;BME280;18697;42.770;23.400;2022-07-12T02:56:47;96073.63;;;19.87;41.10
32197;BME280;18697;42.770;23.400;2022-07-12T02:59:13;96076.44;;;19.82;41.25
32197;BME280;18697;42.770;23.400;2022-07-12T03:01:38;96073.13;;;19.78;41.53
32197;BME280;18697;42.770;23.400;2022-07-12T03:04:04;96078.25;;;19.79;41.62
32197;BME280;18697;42.770;23.400;2022-07-12T03:06:29;96091.06;;;19.75;41.72
32197;BME280;18697;42.770;23.400;2022-07-12T03:08:54;96089.53;;;19.62;41.86
32197;BME280;18697;42.770;23.400;2022-07-12T03:11:20;96091.03;;;19.41;42.37
32197;BME280;18697;42.770;23.400;2022-07-12T03:13:45;96096.38;;;18.89;43.34
32197;BME280;18697;42.770;23.400;2022-07-12T03:16:11;96105.19;;;18.54;44.03
32197;BME280;18697;42.770;23.400;2022-07-12T03:18:39;96113.63;;;18.48;44.89
32197;BME280;18697;42.770;23.400;2022-07-12T03:21:04;96113.59;;;18.43;45.01
32197;BME280;18697;42.770;23.400;2022-07-12T03:23:30;96110.50;;;18.35;43.54
32197;BME280;18697;42.770;23.400;2022-07-12T03:25:55;96117.63;;;18.30;45.26
32197;BME280;18697;42.770;23.400;2022-07-12T03:28:21;96118.41;;;18.31;45.94
32197;BME280;18697;42.770;23.400;2022-07-12T03:30:46;96116.88;;;18.35;45.72
32197;BME280;18697;42.770;23.400;2022-07-12T03:33:11;96123.72;;;18.23;46.01
32197;BME280;18697;42.770;23.400;2022-07-12T03:35:37;96114.19;;;18.10;46.59
32197;BME280;18697;42.770;23.400;2022-07-12T03:38:03;96124.97;;;18.17;47.50
32197;BME280;18697;42.770;23.400;2022-07-12T03:40:31;96119.66;;;18.30;46.30
32197;BME280;18697;42.770;23.400;2022-07-12T03:42:56;96112.50;;;18.29;46.98
32197;BME280;18697;42.770;23.400;2022-07-12T03:45:23;96120.03;;;18.54;46.69
32197;BME280;18697;42.770;23.400;2022-07-12T03:47:48;96123.56;;;18.44;45.84
32197;BME280;18697;42.770;23.400;2022-07-12T03:50:14;96126.16;;;18.58;46.09
32197;BME280;18697;42.770;23.400;2022-07-12T03:52:41;96123.31;;;18.47;46.17
32197;BME280;18697;42.770;23.400;2022-07-12T03:55:09;96121.84;;;18.63;46.18
32197;BME280;18697;42.770;23.400;2022-07-12T03:57:35;96117.13;;;18.97;45.26
32197;BME280;18697;42.770;23.400;2022-07-12T04:00:01;96118.16;;;18.99;45.24
32197;BME280;18697;42.770;23.400;2022-07-12T04:02:26;96114.09;;;19.17;44.97
32197;BME280;18697;42.770;23.400;2022-07-12T04:04:51;96123.31;;;19.29;44.97
32197;BME280;18697;42.770;23.400;2022-07-12T04:07:17;96125.09;;;19.37;44.87
32197;BME280;18697;42.770;23.400;2022-07-12T04:09:43;96119.47;;;19.49;45.06
32197;BME280;18697;42.770;23.400;2022-07-12T04:12:08;96126.16;;;19.74;49.05
32197;BME280;18697;42.770;23.400;2022-07-12T04:14:33;96130.00;;;19.93;46.89
32197;BME280;18697;42.770;23.400;2022-07-12T04:16:59;96127.13;;;20.10;45.98
32197;BME280;18697;42.770;23.400;2022-07-12T04:19:24;96136.06;;;20.19;52.28
32197;BME280;18697;42.770;23.400;2022-07-12T04:21:53;96132.75;;;20.21;49.21
32197;BME280;18697;42.770;23.400;2022-07-12T04:24:20;96138.63;;;20.28;53.41
32197;BME280;18697;42.770;23.400;2022-07-12T04:26:46;96138.88;;;20.25;48.98
32197;BME280;18697;42.770;23.400;2022-07-12T04:29:11;96134.50;;;20.29;48.18
32197;BME280;18697;42.770;23.400;2022-07-12T04:31:37;96137.09;;;20.27;46.51
32197;BME280;18697;42.770;23.400;2022-07-12T04:34:02;96139.38;;;20.29;45.54
32197;BME280;18697;42.770;23.400;2022-07-12T04:36:27;96148.59;;;20.35;44.82
32197;BME280;18697;42.770;23.400;2022-07-12T04:38:53;96151.97;;;20.39;44.57
32197;BME280;18697;42.770;23.400;2022-07-12T04:41:18;96142.72;;;20.39;44.42
32197;BME280;18697;42.770;23.400;2022-07-12T04:43:43;96143.50;;;20.39;44.48
32197;BME280;18697;42.770;23.400;2022-07-12T04:46:10;96138.63;;;19.06;46.82
32197;BME280;18697;42.770;23.400;2022-07-12T04:48:35;96152.16;;;18.96;47.54
32197;BME280;18697;42.770;23.400;2022-07-12T04:51:01;96150.50;;;18.61;48.53
32197;BME280;18697;42.770;23.400;2022-07-12T04:53:27;96153.09;;;18.70;48.66
32197;BME280;18697;42.770;23.400;2022-07-12T04:55:54;96152.19;;;18.42;50.05
32197;BME280;18697;42.770;23.400;2022-07-12T04:58:20;96155.84;;;18.11;51.23
32197;BME280;18697;42.770;23.400;2022-07-12T05:00:45;96153.09;;;17.85;52.12
32197;BME280;18697;42.770;23.400;2022-07-12T05:03:10;96162.09;;;17.58;53.61
32197;BME280;18697;42.770;23.400;2022-07-12T05:05:36;96151.91;;;17.34;54.23
32197;BME280;18697;42.770;23.400;2022-07-12T05:08:01;96153.44;;;17.61;53.75
32197;BME280;18697;42.770;23.400;2022-07-12T05:10:26;96154.31;;;17.47;53.79
32197;BME280;18697;42.770;23.400;2022-07-12T05:12:52;96156.03;;;17.39;54.82
32197;BME280;18697;42.770;23.400;2022-07-12T05:15:17;96158.03;;;17.07;56.07
32197;BME280;18697;42.770;23.400;2022-07-12T05:17:43;96153.72;;;16.86;56.35
32197;BME280;18697;42.770;23.400;2022-07-12T05:20:09;96156.44;;;17.26;55.39
32197;BME280;18697;42.770;23.400;2022-07-12T05:22:35;96153.22;;;17.65;54.35
32197;BME280;18697;42.770;23.400;2022-07-12T05:25:00;96160.53;;;17.57;55.13
32197;BME280;18697;42.770;23.400;2022-07-12T05:27:25;96159.75;;;17.82;53.96
32197;BME280;18697;42.770;23.400;2022-07-12T05:29:51;96152.59;;;18.24;52.72
32197;BME280;18697;42.770;23.400;2022-07-12T05:32:16;96159.72;;;17.77;54.03
32197;BME280;18697;42.770;23.400;2022-07-12T05:34:41;96155.03;;;17.42;55.10
32197;BME280;18697;42.770;23.400;2022-07-12T05:37:07;96157.00;;;17.93;54.01
32197;BME280;18697;42.770;23.400;2022-07-12T05:39:33;96157.16;;;18.16;53.28
32197;BME280;18697;42.770;23.400;2022-07-12T05:41:58;96159.13;;;18.47;52.03
32197;BME280;18697;42.770;23.400;2022-07-12T05:44:23;96150.28;;;18.70;51.42
32197;BME280;18697;42.770;23.400;2022-07-12T05:46:49;96147.06;;;19.00;50.39
32197;BME280;18697;42.770;23.400;2022-07-12T05:49:14;96146.78;;;18.92;50.88
32197;BME280;18697;42.770;23.400;2022-07-12T05:51:39;96140.69;;;19.11;50.06
32197;BME280;18697;42.770;23.400;2022-07-12T05:54:23;96151.19;;;19.32;49.68
32197;BME280;18697;42.770;23.400;2022-07-12T05:56:49;96140.75;;;19.55;49.00
32197;BME280;18697;42.770;23.400;2022-07-12T05:59:16;96140.25;;;19.68;48.28
32197;BME280;18697;42.770;23.400;2022-07-12T06:01:42;96135.38;;;19.85;47.78
32197;BME280;18697;42.770;23.400;2022-07-12T06:04:07;96132.53;;;20.02;47.30
32197;BME280;18697;42.770;23.400;2022-07-12T06:06:33;96133.78;;;20.18;47.16
32197;BME280;18697;42.770;23.400;2022-07-12T06:08:58;96141.69;;;20.30;46.53
32197;BME280;18697;42.770;23.400;2022-07-12T06:11:23;96135.78;;;20.34;46.58
32197;BME280;18697;42.770;23.400;2022-07-12T06:13:49;96137.09;;;20.27;46.12
32197;BME280;18697;42.770;23.400;2022-07-12T06:16:15;96135.28;;;20.30;46.33
32197;BME280;18697;42.770;23.400;2022-07-12T06:18:41;96139.91;;;20.27;46.76
32197;BME280;18697;42.770;23.400;2022-07-12T06:21:06;96131.72;;;20.24;46.30
32197;BME280;18697;42.770;23.400;2022-07-12T06:23:32;96135.53;;;20.32;47.04
32197;BME280;18697;42.770;23.400;2022-07-12T06:25:57;96127.31;;;20.51;46.36
32197;BME280;18697;42.770;23.400;2022-07-12T06:28:23;96135.28;;;20.41;45.85
32197;BME280;18697;42.770;23.400;2022-07-12T06:30:48;96125.00;;;20.49;46.60
32197;BME280;18697;42.770;23.400;2022-07-12T06:33:13;96125.03;;;20.27;46.36
32197;BME280;18697;42.770;23.400;2022-07-12T06:35:39;96133.25;;;20.25;46.68
32197;BME280;18697;42.770;23.400;2022-07-12T06:38:04;96130.16;;;20.23;47.28
32197;BME280;18697;42.770;23.400;2022-07-12T06:40:30;96120.75;;;19.48;48.47
32197;BME280;18697;42.770;23.400;2022-07-12T06:42:55;96122.28;;;19.43;48.86
32197;BME280;18697;42.770;23.400;2022-07-12T06:45:21;96122.06;;;19.86;48.11
32197;BME280;18697;42.770;23.400;2022-07-12T06:47:46;96121.72;;;20.17;47.25
32197;BME280;18697;42.770;23.400;2022-07-12T06:50:12;96121.22;;;20.13;47.38
32197;BME280;18697;42.770;23.400;2022-07-12T06:52:37;96112.94;;;20.49;47.10
32197;BME280;18697;42.770;23.400;2022-07-12T06:55:03;96110.06;;;20.65;46.92
32197;BME280;18697;42.770;23.400;2022-07-12T06:57:28;96111.94;;;20.93;45.74
32197;BME280;18697;42.770;23.400;2022-07-12T06:59:58;96111.28;;;20.76;46.18
32197;BME280;18697;42.770;23.400;2022-07-12T07:02:24;96105.38;;;21.20;45.86
32197;BME280;18697;42.770;23.400;2022-07-12T07:04:49;96108.50;;;21.11;45.62
32197;BME280;18697;42.770;23.400;2022-07-12T07:07:15;96111.63;;;21.49;46.33
32197;BME280;18697;42.770;23.400;2022-07-12T07:09:40;96101.56;;;21.12;43.88
32197;BME280;18697;42.770;23.400;2022-07-12T07:12:06;96107.50;;;21.09;46.00
32197;BME280;18697;42.770;23.400;2022-07-12T07:14:33;96104.22;;;20.99;45.31
32197;BME280;18697;42.770;23.400;2022-07-12T07:16:58;96107.59;;;21.39;45.05
32197;BME280;18697;42.770;23.400;2022-07-12T07:19:23;96105.13;;;20.77;46.62
32197;BME280;18697;42.770;23.400;2022-07-12T07:21:51;96113.91;;;21.09;45.08
32197;BME280;18697;42.770;23.400;2022-07-12T07:24:16;96107.31;;;21.42;45.66
32197;BME280;18697;42.770;23.400;2022-07-12T07:26:42;96102.75;;;21.63;45.04
32197;BME280;18697;42.770;23.400;2022-07-12T07:29:07;96107.22;;;21.83;45.06
32197;BME280;18697;42.770;23.400;2022-07-12T07:31:51;96096.44;;;22.12;43.42
32197;BME280;18697;42.770;23.400;2022-07-12T07:34:16;96102.06;;;22.36;43.56
32197;BME280;18697;42.770;23.400;2022-07-12T07:36:42;96093.25;;;22.64;42.39
32197;BME280;18697;42.770;23.400;2022-07-12T07:39:07;96093.41;;;22.72;41.62
32197;BME280;18697;42.770;23.400;2022-07-12T07:41:32;96104.00;;;22.90;41.31
32197;BME280;18697;42.770;23.400;2022-07-12T07:43:58;96095.25;;;23.07;41.92
32197;BME280;18697;42.770;23.400;2022-07-12T07:46:23;96098.31;;;22.71;39.95
32197;BME280;18697;42.770;23.400;2022-07-12T07:48:49;96086.94;;;22.52;39.75
32197;BME280;18697;42.770;23.400;2022-07-12T07:51:14;96096.22;;;22.72;41.76
32197;BME280;18697;42.770;23.400;2022-07-12T07:53:40;96092.16;;;22.91;41.50
32197;BME280;18697;42.770;23.400;2022-07-12T07:56:05;96081.59;;;22.49;40.60
32197;BME280;18697;42.770;23.400;2022-07-12T07:58:30;96087.31;;;22.43;39.64
32197;BME280;18697;42.770;23.400;2022-07-12T08:00:56;96085.28;;;22.62;40.47
32197;BME280;18697;42.770;23.400;2022-07-12T08:03:22;96083.06;;;22.55;38.89
32197;BME280;18697;42.770;23.400;2022-07-12T08:05:47;96081.44;;;22.84;39.68
32197;BME280;18697;42.770;23.400;2022-07-12T08:08:13;96076.06;;;22.81;39.09
32197;BME280;18697;42.770;23.400;2022-07-12T08:10:39;96081.53;;;23.11;38.85
32197;BME280;18697;42.770;23.400;2022-07-12T08:13:05;96073.59;;;22.72;38.27
32197;BME280;18697;42.770;23.400;2022-07-12T08:15:31;96075.25;;;21.64;39.11
32197;BME280;18697;42.770;23.400;2022-07-12T08:17:57;96072.28;;;21.15;39.60
32197;BME280;18697;42.770;23.400;2022-07-12T08:20:23;96065.78;;;21.31;39.29
32197;BME280;18697;42.770;23.400;2022-07-12T08:22:49;96071.53;;;21.15;39.20
32197;BME280;18697;42.770;23.400;2022-07-12T08:25:15;96070.06;;;21.68;40.22
32197;BME280;18697;42.770;23.400;2022-07-12T08:27:40;96065.28;;;21.87;39.52
32197;BME280;18697;42.770;23.400;2022-07-12T08:30:06;96063.09;;;21.99;39.75
32197;BME280;18697;42.770;23.400;2022-07-12T08:32:32;96068.75;;;21.99;39.00
32197;BME280;18697;42.770;23.400;2022-07-12T08:34:57;96059.38;;;22.34;40.06
32197;BME280;18697;42.770;23.400;2022-07-12T08:37:23;96064.84;;;21.78;37.99
32197;BME280;18697;42.770;23.400;2022-07-12T08:39:49;96061.53;;;21.49;38.42
32197;BME280;18697;42.770;23.400;2022-07-12T08:42:15;96065.41;;;22.01;38.42
32197;BME280;18697;42.770;23.400;2022-07-12T08:44:47;96058.72;;;22.04;39.53
32197;BME280;18697;42.770;23.400;2022-07-12T08:47:18;96048.81;;;22.35;38.11
32197;BME280;18697;42.770;23.400;2022-07-12T08:50:10;96049.00;;;22.42;37.49
32197;BME280;18697;42.770;23.400;2022-07-12T08:52:39;96040.56;;;22.37;37.97
32197;BME280;18697;42.770;23.400;2022-07-12T08:57:45;96048.53;;;22.38;38.74
32197;BME280;18697;42.770;23.400;2022-07-12T09:00:11;96045.78;;;22.51;37.92
32197;BME280;18697;42.770;23.400;2022-07-12T09:05:11;96043.84;;;22.84;39.30
32197;BME280;18697;42.770;23.400;2022-07-12T09:07:36;96050.06;;;23.14;38.86
32197;BME280;18697;42.770;23.400;2022-07-12T09:10:07;96037.19;;;23.32;38.46
32197;BME280;18697;42.770;23.400;2022-07-12T09:12:33;96036.47;;;23.45;38.01
32197;BME280;18697;42.770;23.400;2022-07-12T09:15:20;96047.25;;;23.46;38.32
32197;BME280;18697;42.770;23.400;2022-07-12T09:18:00;96036.19;;;23.30;35.79
32197;BME280;18697;42.770;23.400;2022-07-12T09:20:29;96040.16;;;22.89;37.50
32197;BME280;18697;42.770;23.400;2022-07-12T09:22:58;96037.63;;;23.36;37.96
32197;BME280;18697;42.770;23.400;2022-07-12T09:25:24;96031.44;;;23.70;35.65
32197;BME280;18697;42.770;23.400;2022-07-12T09:27:57;96026.75;;;23.85;34.82
32197;BME280;18697;42.770;23.400;2022-07-12T09:30:25;96021.72;;;23.78;34.47
32197;BME280;18697;42.770;23.400;2022-07-12T09:33:02;96017.78;;;23.68;34.16
32197;BME280;18697;42.770;23.400;2022-07-12T09:41:00;96016.06;;;23.01;36.36
32197;BME280;18697;42.770;23.400;2022-07-12T09:43:26;96021.38;;;23.37;35.84
32197;BME280;18697;42.770;23.400;2022-07-12T09:45:52;96026.06;;;23.66;37.54
32197;BME280;18697;42.770;23.400;2022-07-12T09:48:20;96018.34;;;24.06;35.52
32197;BME280;18697;42.770;23.400;2022-07-12T09:50:48;96016.72;;;24.24;36.43
32197;BME280;18697;42.770;23.400;2022-07-12T09:53:26;96023.88;;;23.59;34.99
32197;BME280;18697;42.770;23.400;2022-07-12T09:55:53;96021.53;;;23.44;36.72
32197;BME280;18697;42.770;23.400;2022-07-12T09:58:23;96023.97;;;23.53;36.06
32197;BME280;18697;42.770;23.400;2022-07-12T10:00:53;96017.13;;;22.98;35.34
32197;BME280;18697;42.770;23.400;2022-07-12T10:03:22;96015.84;;;22.80;36.40
32197;BME280;18697;42.770;23.400;2022-07-12T10:05:51;96017.69;;;23.42;36.09
32197;BME280;18697;42.770;23.400;2022-07-12T10:08:21;96012.16;;;23.49;35.29
32197;BME280;18697;42.770;23.400;2022-07-12T10:10:48;96014.88;;;23.74;35.91
32197;BME280;18697;42.770;23.400;2022-07-12T10:13:15;96010.03;;;23.82;36.16
32197;BME280;18697;42.770;23.400;2022-07-12T10:15:41;96007.22;;;23.95;35.74
32197;BME280;18697;42.770;23.400;2022-07-12T10:18:20;96004.72;;;23.91;36.33
32197;BME280;18697;42.770;23.400;2022-07-12T10:20:49;95999.38;;;24.01;35.71
32197;BME280;18697;42.770;23.400;2022-07-12T10:23:32;96005.06;;;24.28;35.06
32197;BME280;18697;42.770;23.400;2022-07-12T10:26:37;96000.16;;;24.41;35.51
32197;BME280;18697;42.770;23.400;2022-07-12T10:29:07;96005.38;;;23.98;35.89
32197;BME280;18697;42.770;23.400;2022-07-12T10:31:35;96000.03;;;24.07;35.25
32197;BME280;18697;42.770;23.400;2022-07-12T10:34:24;95994.34;;;24.07;34.88
32197;BME280;18697;42.770;23.400;2022-07-12T10:39:22;95983.00;;;24.47;35.29
32197;BME280;18697;42.770;23.400;2022-07-12T10:44:35;95988.13;;;23.69;35.66
32197;BME280;18697;42.770;23.400;2022-07-12T10:47:03;95981.81;;;23.89;35.83
32197;BME280;18697;42.770;23.400;2022-07-12T10:49:30;95989.00;;;24.04;35.88
32197;BME280;18697;42.770;23.400;2022-07-12T10:54:38;95989.31;;;23.87;34.78
32197;BME280;18697;42.770;23.400;2022-07-12T10:57:04;95989.72;;;23.19;34.13
32197;BME280;18697;42.770;23.400;2022-07-12T10:59:30;95975.88;;;22.84;36.11
32197;BME280;18697;42.770;23.400;2022-07-12T11:01:58;95979.41;;;23.35;37.22
32197;BME280;18697;42.770;23.400;2022-07-12T11:04:25;95982.88;;;23.60;36.67
32197;BME280;18697;42.770;23.400;2022-07-12T11:06:53;95982.34;;;23.75;36.07
32197;BME280;18697;42.770;23.400;2022-07-12T11:09:22;95984.00;;;23.70;35.78
32197;BME280;18697;42.770;23.400;2022-07-12T11:11:49;95988.00;;;23.88;35.83
32197;BME280;18697;42.770;23.400;2022-07-12T11:16:49;95991.41;;;24.13;35.20
32197;BME280;18697;42.770;23.400;2022-07-12T11:19:21;95985.50;;;24.11;34.97
32197;BME280;18697;42.770;23.400;2022-07-12T11:21:47;95990.84;;;24.14;35.17
32197;BME280;18697;42.770;23.400;2022-07-12T11:24:21;95984.19;;;24.25;34.51
32197;BME280;18697;42.770;23.400;2022-07-12T11:26:47;95978.97;;;24.42;35.23
32197;BME280;18697;42.770;23.400;2022-07-12T11:29:13;95983.63;;;24.87;36.58
32197;BME280;18697;42.770;23.400;2022-07-12T11:31:38;95978.94;;;25.24;33.91
32197;BME280;18697;42.770;23.400;2022-07-12T11:34:04;95974.25;;;25.54;32.47
32197;BME280;18697;42.770;23.400;2022-07-12T11:36:30;95974.66;;;25.59;31.97
32197;BME280;18697;42.770;23.400;2022-07-12T11:38:57;95969.47;;;25.49;32.24
32197;BME280;18697;42.770;23.400;2022-07-12T11:41:22;95964.69;;;25.44;32.94
32197;BME280;18697;42.770;23.400;2022-07-12T11:43:49;95966.63;;;25.29;32.87
32197;BME280;18697;42.770;23.400;2022-07-12T11:46:15;95964.97;;;25.33;32.88
32197;BME280;18697;42.770;23.400;2022-07-12T11:48:42;95966.06;;;25.30;32.31
32197;BME280;18697;42.770;23.400;2022-07-12T11:51:09;95964.44;;;25.14;32.56
32197;BME280;18697;42.770;23.400;2022-07-12T11:53:37;95960.03;;;25.34;32.55
32197;BME280;18697;42.770;23.400;2022-07-12T11:56:04;95956.22;;;25.52;31.91
32197;BME280;18697;42.770;23.400;2022-07-12T11:58:31;95952.56;;;25.65;31.79
32197;BME280;18697;42.770;23.400;2022-07-12T12:01:14;95948.38;;;25.66;31.91
32197;BME280;18697;42.770;23.400;2022-07-12T12:03:44;95954.16;;;25.32;32.40
32197;BME280;18697;42.770;23.400;2022-07-12T12:06:10;95953.06;;;25.14;30.86
32197;BME280;18697;42.770;23.400;2022-07-12T12:08:35;95949.66;;;25.15;32.60
32197;BME280;18697;42.770;23.400;2022-07-12T12:11:01;95951.28;;;24.90;33.66
32197;BME280;18697;42.770;23.400;2022-07-12T12:13:29;95949.84;;;24.97;32.19
32197;BME280;18697;42.770;23.400;2022-07-12T12:15:59;95938.28;;;25.15;32.77
32197;BME280;18697;42.770;23.400;2022-07-12T12:21:09;95933.03;;;24.85;31.75
32197;BME280;18697;42.770;23.400;2022-07-12T12:23:37;95928.41;;;24.96;33.95
32197;BME280;18697;42.770;23.400;2022-07-12T12:26:19;95936.34;;;25.10;33.97
32197;BME280;18697;42.770;23.400;2022-07-12T12:28:52;95936.44;;;25.18;33.91
32197;BME280;18697;42.770;23.400;2022-07-12T12:31:22;95935.47;;;25.15;33.75
32197;BME280;18697;42.770;23.400;2022-07-12T12:33:51;95937.72;;;25.38;33.27
32197;BME280;18697;42.770;23.400;2022-07-12T12:36:28;95935.88;;;24.99;32.31
32197;BME280;18697;42.770;23.400;2022-07-12T12:38:59;95938.00;;;25.27;33.22
32197;BME280;18697;42.770;23.400;2022-07-12T12:41:27;95935.06;;;25.40;33.38
32197;BME280;18697;42.770;23.400;2022-07-12T12:44:04;95937.88;;;25.61;33.46
32197;BME280;18697;42.770;23.400;2022-07-12T12:46:55;95947.13;;;25.74;32.49
32197;BME280;18697;42.770;23.400;2022-07-12T12:49:51;95929.66;;;25.70;32.61
32197;BME280;18697;42.770;23.400;2022-07-12T12:52:18;95928.59;;;25.60;31.76
32197;BME280;18697;42.770;23.400;2022-07-12T12:54:44;95937.56;;;25.64;32.08
32197;BME280;18697;42.770;23.400;2022-07-12T12:57:10;95941.03;;;25.70;31.87
32197;BME280;18697;42.770;23.400;2022-07-12T12:59:36;95930.06;;;25.53;32.39
32197;BME280;18697;42.770;23.400;2022-07-12T13:02:03;95932.84;;;25.67;32.90
32197;BME280;18697;42.770;23.400;2022-07-12T13:04:29;95936.09;;;25.50;33.46
32197;BME280;18697;42.770;23.400;2022-07-12T13:06:56;95935.91;;;25.48;32.70
32197;BME280;18697;42.770;23.400;2022-07-12T13:09:21;95932.22;;;25.40;32.21
32197;BME280;18697;42.770;23.400;2022-07-12T13:11:50;95927.91;;;24.84;32.85
32197;BME280;18697;42.770;23.400;2022-07-12T13:14:16;95927.91;;;24.84;33.35